Aérodrome :
LOGIN :

S'inscrire | Disclaimer

   EN    FR    IT 

 










Légende :    VFR   VFR Marginal   IFR   IFR Intensif   IFR Très Intensif
Visi : 
Plafond : 
>= 8 km
>= 3000ft
5 à 8 km
1000 à 3000 ft
1500m à 5 km
500 à 1000 ft
800 à 1500m
200 à 500 ft
< 800m
< 200 ft
Symboles :   Orages  Brouillard  Fortes neiges  Fortes précipitations  Vent > 20 kt
SIGMETs :   Divers  Orages  Givrage  Turbulence  Onde Orograph.  Cendres Volcan.






- Altitude de l'aérodrome : 408 ft
- Code IATA : FKB


EDSB - Karlsruhe Baden Baden

DERNIER METAR :
  • 192220Z AUTO 21006KT 9999 SCT140/// 25/21 Q1008

METARs EXPIRÉS :
  • 192150Z AUTO 23004KT 9999 FEW150/// SCT170/// 26/20 Q1009
  • 192120Z AUTO 19003KT 9999 NCD 26/20 Q1009
  • 192050Z 03002KT CAVOK 26/20 Q1009
  • 192020Z VRB01KT CAVOK 26/21 Q1009
  • 191950Z 33003KT 280V050 CAVOK 27/20 Q1009
  • 191920Z 35004KT CAVOK 26/20 Q1008

TAF TAF EDSB
Valide du 19 à 18h jusqu'au 20 à 18h UTC


191700Z 1918/2018 36004KT CAVOK
PROB30
TEMPO 1923/2005 23015G30KT TSRA SCT050CB
BECMG 2000/2003 23006KT
BECMG 2012/2015 08005KT
TEMPO 2016/2018 20020G40KT 3000 TSRAGR BKN025CB



MET'MAP, la Météo Aéronautique d'un coup d'oeil ! - Copyright ORBIFLY Décembre 2007 - Disclaimer

ORBIFLY MET'MAP TEAM :

Programmation & Développement : Alexandra Zaïnal
Sur une idée originale de : Baudouin d'Aumeries
Assistance à la programmation : Marc-Olivier Méhu
Soutien technique & logistique : Manuel Goepfert

Contact : metmap@orbifly.com




SOURCES & CREDITS :

   NOAA